createdAt,value
2022-12-27T00:00:11.011Z,13.27
2022-12-27T00:05:09.595Z,12.60
2022-12-27T00:10:08.250Z,14.10
2022-12-27T00:15:06.297Z,13.52
2022-12-27T00:20:11.044Z,12.15
2022-12-27T00:25:10.069Z,11.90
2022-12-27T00:30:08.836Z,12.00
2022-12-27T00:35:06.553Z,15.10
2022-12-27T00:40:04.108Z,11.02
2022-12-27T00:45:01.277Z,10.88
2022-12-27T00:49:58.679Z,17.17
2022-12-27T00:54:56.039Z,20.77
2022-12-27T00:59:53.445Z,17.25
2022-12-27T01:04:50.714Z,19.48
2022-12-27T01:09:48.027Z,16.95
2022-12-27T01:14:45.624Z,12.63
2022-12-27T01:19:42.948Z,16.58
2022-12-27T01:24:40.179Z,12.85
2022-12-27T01:29:37.497Z,10.90
2022-12-27T01:34:34.961Z,14.02
2022-12-27T01:39:32.289Z,14.73
2022-12-27T01:44:38.899Z,13.38
2022-12-27T01:49:36.192Z,13.45
2022-12-27T01:54:33.721Z,13.05
2022-12-27T01:59:32.286Z,10.77
2022-12-27T02:04:32.239Z,13.10
2022-12-27T02:09:40.261Z,12.23
2022-12-27T02:14:47.213Z,11.65
2022-12-27T02:20:05.830Z,10.95
2022-12-27T02:25:27.455Z,12.93
2022-12-27T02:30:25.371Z,13.00
2022-12-27T02:35:36.087Z,13.70
2022-12-27T02:41:10.268Z,12.68
2022-12-27T02:46:42.204Z,11.55
2022-12-27T02:52:13.226Z,10.48
2022-12-27T02:57:40.049Z,9.80
2022-12-27T03:03:29.008Z,9.07
2022-12-27T03:08:35.829Z,10.27
2022-12-27T03:13:54.736Z,10.95
2022-12-27T03:18:55.256Z,10.85
2022-12-27T03:24:15.381Z,11.48
2022-12-27T03:29:33.747Z,12.40
2022-12-27T03:34:40.171Z,20.92
2022-12-27T03:39:40.693Z,18.42
2022-12-27T03:44:38.425Z,17.27
2022-12-27T03:49:48.528Z,20.10
2022-12-27T03:54:49.400Z,22.88
2022-12-27T03:59:46.871Z,12.40
2022-12-27T04:04:44.497Z,12.35
2022-12-27T04:10:00.608Z,12.88
2022-12-27T04:15:16.508Z,28.00
2022-12-27T04:20:33.190Z,31.17
2022-12-27T04:25:48.986Z,67.63
2022-12-27T04:31:04.820Z,47.58
2022-12-27T04:36:06.220Z,54.20
2022-12-27T04:41:23.359Z,38.10
2022-12-27T04:46:44.518Z,38.55
2022-12-27T04:52:00.896Z,49.95
2022-12-27T04:56:58.974Z,49.42
2022-12-27T05:02:04.935Z,74.78
2022-12-27T05:07:47.969Z,71.55
2022-12-27T05:13:07.664Z,52.80
2022-12-27T05:18:06.672Z,45.38
2022-12-27T05:23:22.404Z,66.68
2022-12-27T05:28:20.048Z,36.63
2022-12-27T05:33:17.500Z,32.42
2022-12-27T05:38:14.962Z,45.92
2022-12-27T05:43:12.463Z,26.08
2022-12-27T05:48:09.730Z,50.90
2022-12-27T05:53:07.239Z,41.58
2022-12-27T05:58:04.475Z,30.88
2022-12-27T06:03:03.408Z,39.10
2022-12-27T06:08:01.267Z,48.22
2022-12-27T06:13:02.218Z,63.83
2022-12-27T06:18:00.620Z,81.45
2022-12-27T06:23:00.241Z,73.95
2022-12-27T06:27:57.548Z,35.08
2022-12-27T06:32:54.836Z,37.65
2022-12-27T06:37:52.111Z,33.83
2022-12-27T06:42:49.341Z,27.15
2022-12-27T06:47:46.751Z,30.90
2022-12-27T06:52:44.032Z,38.60
2022-12-27T06:57:41.260Z,16.00
2022-12-27T07:02:38.958Z,30.85
2022-12-27T07:07:36.313Z,31.20
2022-12-27T07:12:36.761Z,44.58
2022-12-27T07:17:37.679Z,40.88
2022-12-27T07:22:35.037Z,55.13
2022-12-27T07:27:36.169Z,72.50
2022-12-27T07:32:33.526Z,79.93
2022-12-27T07:37:30.765Z,79.55
2022-12-27T07:42:29.244Z,27.80
2022-12-27T07:47:26.833Z,56.40
2022-12-27T07:52:24.555Z,61.22
2022-12-27T07:57:21.968Z,27.15
2022-12-27T08:02:19.342Z,91.15
2022-12-27T08:07:19.174Z,47.13
2022-12-27T08:12:16.933Z,86.38
2022-12-27T08:17:20.503Z,108.05
2022-12-27T08:22:17.946Z,67.18
2022-12-27T08:27:22.242Z,96.28
2022-12-27T08:32:19.657Z,189.07
2022-12-27T08:37:17.190Z,101.40
2022-12-27T08:42:14.434Z,52.25
2022-12-27T08:47:11.878Z,65.22
2022-12-27T08:52:09.150Z,44.10
2022-12-27T08:57:06.360Z,16.38
2022-12-27T09:02:03.715Z,43.53
2022-12-27T09:07:01.522Z,59.22
2022-12-27T09:12:02.245Z,32.72
2022-12-27T09:17:00.443Z,69.70
2022-12-27T09:21:58.043Z,21.92
2022-12-27T09:32:10.543Z,13.35
2022-12-27T09:37:08.331Z,19.30
2022-12-27T09:47:56.726Z,10.90
2022-12-27T09:53:07.378Z,26.38
2022-12-27T09:58:19.940Z,12.85
2022-12-27T10:03:20.139Z,12.27
2022-12-27T10:09:01.485Z,16.23
2022-12-27T10:14:07.998Z,11.80
2022-12-27T10:19:23.775Z,14.95
2022-12-27T10:24:26.549Z,11.80
2022-12-27T10:29:33.156Z,22.02
2022-12-27T10:34:30.865Z,12.32
2022-12-27T10:39:36.303Z,17.23
2022-12-27T10:44:33.634Z,13.50
2022-12-27T10:49:33.696Z,21.73
2022-12-27T10:59:29.314Z,16.15
2022-12-27T11:04:27.383Z,15.27
2022-12-27T11:09:30.535Z,15.82
2022-12-27T11:14:28.166Z,32.58
2022-12-27T11:19:27.589Z,11.48
2022-12-27T11:24:24.909Z,23.17
2022-12-27T11:29:25.145Z,25.23
2022-12-27T11:34:33.173Z,13.23
2022-12-27T11:39:52.693Z,20.90
2022-12-27T11:45:18.972Z,16.05
2022-12-27T11:50:56.907Z,16.15
2022-12-27T11:56:07.475Z,21.90
2022-12-27T12:06:31.439Z,10.55
2022-12-27T12:11:38.041Z,12.15
2022-12-27T12:16:53.923Z,9.88
2022-12-27T12:22:30.202Z,13.52
2022-12-27T12:27:33.281Z,17.48
2022-12-27T12:32:56.825Z,20.10
2022-12-27T12:38:00.135Z,17.95
2022-12-27T12:43:13.507Z,15.65
2022-12-27T12:48:58.327Z,18.70
2022-12-27T12:53:58.475Z,21.23
2022-12-27T12:59:17.449Z,23.40
2022-12-27T13:04:23.681Z,27.65
2022-12-27T13:09:45.774Z,12.85
2022-12-27T13:15:12.332Z,12.30
2022-12-27T13:20:34.390Z,26.30
2022-12-27T13:26:03.517Z,17.33
2022-12-27T13:31:13.081Z,20.75
2022-12-27T13:36:16.765Z,63.10
2022-12-27T13:41:42.045Z,35.70
2022-12-27T13:47:01.342Z,75.72
2022-12-27T13:52:40.103Z,65.78
2022-12-27T13:58:07.890Z,42.70
2022-12-27T14:03:23.816Z,43.53
2022-12-27T14:08:58.766Z,48.88
2022-12-27T14:14:02.156Z,52.00
2022-12-27T14:19:12.224Z,84.35
2022-12-27T14:24:40.320Z,42.23
2022-12-27T14:29:56.212Z,44.47
2022-12-27T14:35:11.584Z,95.32
2022-12-27T14:40:34.428Z,66.63
2022-12-27T14:45:44.083Z,66.95
2022-12-27T14:51:50.084Z,48.17
2022-12-27T14:56:37.738Z,44.20
2022-12-27T15:02:02.374Z,25.50
2022-12-27T15:07:36.796Z,21.35
2022-12-27T15:13:01.821Z,13.57
2022-12-27T15:18:14.515Z,16.20
2022-12-27T15:23:50.350Z,18.00
2022-12-27T15:29:06.488Z,16.77
2022-12-27T15:34:24.538Z,15.98
2022-12-27T15:39:34.564Z,17.40
2022-12-27T15:44:55.588Z,18.75
2022-12-27T15:50:43.284Z,41.58
2022-12-27T15:56:02.579Z,19.85
2022-12-27T16:01:25.505Z,21.83
2022-12-27T16:06:43.735Z,40.53
2022-12-27T16:12:06.098Z,28.30
2022-12-27T16:17:24.694Z,17.60
2022-12-27T16:22:51.964Z,22.90
2022-12-27T16:28:24.030Z,29.02
2022-12-27T16:33:27.525Z,29.25
2022-12-27T16:38:24.898Z,32.22
2022-12-27T16:43:41.309Z,33.10
2022-12-27T16:49:11.274Z,34.72
2022-12-27T16:54:19.129Z,26.35
2022-12-27T17:00:02.658Z,36.15
2022-12-27T17:05:01.558Z,21.92
2022-12-27T17:10:27.588Z,22.77
2022-12-27T17:15:25.728Z,23.90
2022-12-27T17:20:24.456Z,23.55
2022-12-27T17:25:31.914Z,27.33
2022-12-27T17:30:55.093Z,20.23
2022-12-27T17:36:01.064Z,16.67
2022-12-27T17:41:45.589Z,20.23
2022-12-27T17:46:57.656Z,16.50
2022-12-27T17:52:14.192Z,16.92
2022-12-27T17:57:32.409Z,16.45
2022-12-27T18:02:36.302Z,16.70
2022-12-27T18:07:34.859Z,17.77
2022-12-27T18:12:38.385Z,17.40
2022-12-27T18:17:42.303Z,15.10
2022-12-27T18:22:39.619Z,13.52
2022-12-27T18:27:36.798Z,13.95
2022-12-27T18:32:35.473Z,12.30
2022-12-27T18:37:36.466Z,12.80
2022-12-27T18:42:51.290Z,17.20
2022-12-27T18:47:51.421Z,28.77
2022-12-27T18:58:06.584Z,27.40
2022-12-27T19:03:15.553Z,29.17
2022-12-27T19:08:20.244Z,30.35
2022-12-27T19:13:36.657Z,27.77
2022-12-27T19:18:38.618Z,28.17
2022-12-27T19:23:38.795Z,31.85
2022-12-27T19:28:39.757Z,33.72
2022-12-27T19:33:39.757Z,33.65
2022-12-27T19:38:42.731Z,27.42
2022-12-27T19:43:46.815Z,20.08
2022-12-27T19:48:44.087Z,39.75
2022-12-27T19:53:44.063Z,30.55
2022-12-27T19:58:44.233Z,149.70
2022-12-27T20:03:41.581Z,178.27
2022-12-27T20:08:42.852Z,279.67
2022-12-27T20:13:40.309Z,98.85
2022-12-27T20:18:38.956Z,92.93
2022-12-27T20:23:37.688Z,82.53
2022-12-27T20:28:34.994Z,86.57
2022-12-27T20:33:32.354Z,39.13
2022-12-27T20:38:29.805Z,26.65
2022-12-27T20:43:27.321Z,27.10
2022-12-27T20:48:24.526Z,44.03
2022-12-27T20:53:21.771Z,25.40
2022-12-27T20:58:19.005Z,26.80
2022-12-27T21:03:16.346Z,27.17
2022-12-27T21:08:13.674Z,22.63
2022-12-27T21:13:10.902Z,18.17
2022-12-27T21:18:08.200Z,20.20
2022-12-27T21:23:05.474Z,17.83
2022-12-27T21:28:02.913Z,18.40
2022-12-27T21:33:00.770Z,16.95
2022-12-27T21:37:58.576Z,19.75
2022-12-27T21:42:55.883Z,16.80
2022-12-27T21:47:53.143Z,21.40
2022-12-27T21:52:50.481Z,16.02
2022-12-27T21:57:47.828Z,18.35
2022-12-27T22:02:50.154Z,17.48
2022-12-27T22:07:47.622Z,15.80
2022-12-27T22:12:45.208Z,13.63
2022-12-27T22:17:43.097Z,15.48
2022-12-27T22:22:40.542Z,22.50
2022-12-27T22:27:37.800Z,16.60
2022-12-27T22:32:35.079Z,17.00
2022-12-27T22:37:32.457Z,18.98
2022-12-27T22:42:29.738Z,21.90
2022-12-27T22:47:28.125Z,14.68
2022-12-27T22:52:25.894Z,16.85
2022-12-27T22:57:23.452Z,20.08
2022-12-27T23:02:20.740Z,21.20
2022-12-27T23:07:21.311Z,16.60
2022-12-27T23:12:38.561Z,14.35
2022-12-27T23:17:35.835Z,16.23
2022-12-27T23:22:33.158Z,16.75
2022-12-27T23:27:33.261Z,23.85
2022-12-27T23:37:27.682Z,24.77
2022-12-27T23:42:25.069Z,26.33
2022-12-27T23:47:22.405Z,33.17
2022-12-27T23:52:19.842Z,30.67
2022-12-27T23:57:20.033Z,30.83
